Time;durP1;ratioP1;P1;durP2;ratioP2;P2;SDS_P1;SDS_P2;PMS_P1;PMS_P2;Temp;Humidity;BMP_temperature;BMP_pressure;BME280_temperature;BME280_humidity;BME280_pressure;Samples;Min_cycle;Max_cycle;Signal;HPM_P1;HPM_P2
2021/12/06 00:00:51;;;;;;;29.90;19.05;;;3.70;99.90;;;;;;5052101;28;20071;-69
2021/12/06 00:03:24;;;;;;;29.70;19.30;;;3.70;99.90;;;;;;5070159;28;20044;-69
2021/12/06 00:05:50;;;;;;;29.45;18.65;;;3.70;99.90;;;;;;5078305;28;20059;-68
2021/12/06 00:08:15;;;;;;;32.65;19.77;;;3.70;99.90;;;;;;5070954;28;20039;-68
2021/12/06 00:10:42;;;;;;;29.58;19.02;;;3.60;99.90;;;;;;5072035;28;20507;-69
2021/12/06 00:13:08;;;;;;;29.27;19.92;;;3.60;99.90;;;;;;5071939;28;20450;-69
2021/12/06 00:15:34;;;;;;;29.67;19.17;;;3.60;99.90;;;;;;5088870;28;20044;-68
2021/12/06 00:18:02;;;;;;;31.20;19.40;;;3.60;99.90;;;;;;5090228;28;20456;-68
2021/12/06 00:20:28;;;;;;;30.90;18.95;;;3.80;99.90;;;;;;5088517;28;20441;-69
2021/12/06 00:22:54;;;;;;;33.83;20.67;;;3.60;99.90;;;;;;5071886;28;20040;-69
2021/12/06 00:25:21;;;;;;;32.28;20.13;;;5.00;99.90;;;;;;5087207;28;20511;-69
2021/12/06 00:27:48;;;;;;;30.65;19.80;;;3.70;99.90;;;;;;5058385;28;20052;-69
2021/12/06 00:30:17;;;;;;;31.17;20.15;;;3.60;99.90;;;;;;5066885;28;20120;-69
2021/12/06 00:32:44;;;;;;;29.75;19.17;;;3.50;99.90;;;;;;5070263;28;20120;-69
2021/12/06 00:35:19;;;;;;;31.25;19.98;;;3.50;99.90;;;;;;5088697;28;20044;-69
2021/12/06 00:37:55;;;;;;;32.53;19.80;;;3.60;99.90;;;;;;5072420;28;20122;-68
2021/12/06 00:40:21;;;;;;;31.95;19.85;;;3.60;99.90;;;;;;5088924;28;20056;-68
2021/12/06 00:42:47;;;;;;;31.25;20.20;;;3.60;99.90;;;;;;5060148;28;20389;-69
2021/12/06 00:45:13;;;;;;;32.10;20.17;;;3.60;99.90;;;;;;5068780;28;20055;-69
2021/12/06 00:47:38;;;;;;;31.48;19.20;;;3.60;99.90;;;;;;5068714;28;20434;-69
2021/12/06 00:50:07;;;;;;;34.40;20.80;;;3.60;99.90;;;;;;5051109;28;20473;-69
2021/12/06 00:52:33;;;;;;;31.15;19.70;;;3.60;99.90;;;;;;5068767;28;20497;-69
2021/12/06 00:54:58;;;;;;;33.70;20.17;;;3.60;99.90;;;;;;5069669;28;20390;-68
2021/12/06 00:57:25;;;;;;;31.67;19.85;;;3.70;99.90;;;;;;5046527;28;20048;-69
2021/12/06 00:59:51;;;;;;;32.78;20.20;;;3.60;99.90;;;;;;5055977;28;20064;-68
2021/12/06 01:02:16;;;;;;;32.97;20.25;;;3.60;99.90;;;;;;5066139;28;20052;-69
2021/12/06 01:04:44;;;;;;;31.88;20.25;;;3.70;99.90;;;;;;5068910;28;20041;-68
2021/12/06 01:07:10;;;;;;;30.13;19.67;;;3.60;99.90;;;;;;5047880;28;20489;-69
2021/12/06 01:09:36;;;;;;;33.70;19.95;;;3.60;99.90;;;;;;5031420;28;20049;-69
2021/12/06 01:12:02;;;;;;;31.17;20.10;;;3.60;99.90;;;;;;5055266;28;20044;-68
2021/12/06 01:14:28;;;;;;;32.60;19.67;;;3.60;99.90;;;;;;5067545;28;20488;-68
2021/12/06 01:16:54;;;;;;;32.33;20.08;;;3.60;99.90;;;;;;5068566;28;20062;-68
2021/12/06 01:19:19;;;;;;;31.48;21.23;;;3.50;99.90;;;;;;5065793;28;20051;-69
2021/12/06 01:21:52;;;;;;;32.45;20.17;;;3.50;99.90;;;;;;5067312;28;20533;-68
2021/12/06 01:24:25;;;;;;;32.70;20.08;;;3.50;99.90;;;;;;5068107;28;20040;-69
2021/12/06 01:27:10;;;;;;;31.27;19.20;;;3.60;99.90;;;;;;5068183;28;20401;-68
2021/12/06 01:30:02;;;;;;;33.58;20.40;;;3.50;99.90;;;;;;5068510;28;20040;-68
2021/12/06 01:40:07;;;;;;;33.40;19.60;;;3.20;99.90;;;;;;5067678;28;20568;-69
2021/12/06 01:42:32;;;;;;;34.50;21.15;;;3.50;99.90;;;;;;5067773;28;20048;-68
2021/12/06 01:44:58;;;;;;;31.80;19.67;;;3.50;99.90;;;;;;5070129;28;20041;-68
2021/12/06 01:47:33;;;;;;;33.78;20.77;;;3.40;99.90;;;;;;5048229;28;20075;-68
2021/12/06 01:50:14;;;;;;;32.55;20.20;;;3.90;99.90;;;;;;5047465;28;20118;-69
2021/12/06 01:52:44;;;;;;;35.30;21.52;;;3.40;99.90;;;;;;5029747;28;20403;-68
2021/12/06 01:55:12;;;;;;;34.17;20.70;;;3.40;99.90;;;;;;5054280;28;20076;-67
2021/12/06 01:57:38;;;;;;;36.40;20.67;;;3.50;99.90;;;;;;5067150;28;20444;-68
2021/12/06 02:00:14;;;;;;;35.63;21.38;;;3.50;99.90;;;;;;5067042;28;20118;-68
2021/12/06 02:02:40;;;;;;;37.38;21.33;;;3.50;99.90;;;;;;5066618;28;20411;-68
2021/12/06 02:05:06;;;;;;;36.10;21.05;;;3.40;99.90;;;;;;5050418;28;20098;-68
2021/12/06 02:07:31;;;;;;;33.42;20.13;;;3.40;99.90;;;;;;5047768;28;20045;-68
2021/12/06 02:09:58;;;;;;;36.45;20.77;;;3.40;99.90;;;;;;5050684;28;20041;-67
2021/12/06 02:12:30;;;;;;;35.05;20.30;;;3.40;99.90;;;;;;5068008;28;20133;-68
2021/12/06 02:15:10;;;;;;;38.47;21.38;;;3.80;99.90;;;;;;5067654;28;20451;-68
2021/12/06 02:17:40;;;;;;;37.45;21.13;;;3.40;99.90;;;;;;5067044;28;20052;-68
2021/12/06 02:20:09;;;;;;;38.90;22.73;;;3.40;99.90;;;;;;5068686;28;20052;-68
2021/12/06 02:22:38;;;;;;;36.03;20.90;;;3.10;99.90;;;;;;5067224;28;20049;-68
2021/12/06 02:25:07;;;;;;;39.63;22.00;;;3.10;99.90;;;;;;5070551;28;20586;-68
2021/12/06 02:27:32;;;;;;;43.90;23.10;;;3.10;99.90;;;;;;5059983;28;20036;-68
2021/12/06 02:30:00;;;;;;;41.33;22.13;;;3.10;99.90;;;;;;5054388;28;20057;-68
2021/12/06 02:32:26;;;;;;;41.75;22.95;;;3.10;99.90;;;;;;5068987;28;20150;-68
2021/12/06 02:34:55;;;;;;;45.70;24.42;;;3.20;99.90;;;;;;5071687;28;20056;-68
2021/12/06 02:37:25;;;;;;;41.83;23.52;;;3.10;99.90;;;;;;5073069;28;20041;-68
2021/12/06 02:39:52;;;;;;;42.83;23.52;;;3.10;99.90;;;;;;5073969;28;20474;-68
2021/12/06 02:42:18;;;;;;;44.53;23.25;;;3.10;99.90;;;;;;5068275;28;20059;-68
2021/12/06 02:44:46;;;;;;;46.05;23.67;;;3.10;99.90;;;;;;5030899;28;20057;-68
2021/12/06 02:47:13;;;;;;;43.50;23.40;;;3.10;99.90;;;;;;5045342;28;20040;-68
2021/12/06 02:49:39;;;;;;;43.17;23.92;;;3.10;99.90;;;;;;5050559;28;20048;-68
2021/12/06 02:52:05;;;;;;;44.22;24.67;;;3.10;99.90;;;;;;5049939;28;20110;-68
2021/12/06 02:54:31;;;;;;;41.75;24.05;;;3.10;99.90;;;;;;5067776;28;20089;-69
2021/12/06 02:59:41;;;;;;;42.90;22.77;;;3.00;99.90;;;;;;5072035;28;20052;-68
2021/12/06 03:02:14;;;;;;;43.58;23.67;;;2.90;99.90;;;;;;5066804;28;20101;-68
2021/12/06 03:04:41;;;;;;;44.03;23.67;;;3.00;99.90;;;;;;5071441;28;20401;-68
2021/12/06 03:07:08;;;;;;;46.90;24.90;;;3.00;99.90;;;;;;5071328;28;20055;-68
2021/12/06 03:09:38;;;;;;;47.08;25.02;;;3.00;99.90;;;;;;5071055;28;20091;-67
2021/12/06 03:12:18;;;;;;;45.83;25.30;;;2.90;99.90;;;;;;5063821;28;20052;-70
2021/12/06 03:14:49;;;;;;;43.58;23.08;;;2.90;99.90;;;;;;5033357;28;20082;-70
2021/12/06 03:17:19;;;;;;;47.78;25.48;;;2.80;99.90;;;;;;5044416;28;20092;-69
2021/12/06 03:19:45;;;;;;;45.28;24.60;;;2.90;99.90;;;;;;5033440;28;20053;-69
2021/12/06 03:22:13;;;;;;;49.55;25.58;;;2.90;99.90;;;;;;5070887;28;20397;-70
2021/12/06 03:24:40;;;;;;;45.10;25.02;;;2.80;99.90;;;;;;5070389;28;20045;-70
2021/12/06 03:27:06;;;;;;;44.00;24.48;;;2.90;99.90;;;;;;5070077;28;20777;-70
2021/12/06 03:29:34;;;;;;;45.95;23.70;;;2.90;99.90;;;;;;5069176;28;20051;-70
2021/12/06 03:32:01;;;;;;;44.30;23.83;;;2.90;99.90;;;;;;5057281;28;20043;-70
2021/12/06 03:34:28;;;;;;;48.15;25.27;;;2.90;99.90;;;;;;5067498;28;20053;-70
2021/12/06 03:36:56;;;;;;;44.92;24.45;;;3.00;99.90;;;;;;5069828;28;20041;-69
2021/12/06 03:39:34;;;;;;;47.00;24.50;;;3.00;99.90;;;;;;5069080;28;20048;-69
2021/12/06 03:42:04;;;;;;;47.83;24.27;;;2.90;99.90;;;;;;5071247;28;20115;-70
2021/12/06 03:44:30;;;;;;;45.13;24.08;;;2.80;99.90;;;;;;5069695;28;20489;-70
2021/12/06 03:47:00;;;;;;;48.65;26.55;;;2.90;99.90;;;;;;5070257;28;20131;-69
2021/12/06 03:49:26;;;;;;;44.75;24.83;;;2.90;99.90;;;;;;5068073;28;20040;-70
2021/12/06 03:51:52;;;;;;;47.25;25.42;;;2.90;99.90;;;;;;5051742;28;20469;-70
2021/12/06 03:54:21;;;;;;;46.40;24.60;;;2.90;99.90;;;;;;5060867;28;20048;-69
2021/12/06 03:56:47;;;;;;;45.55;24.67;;;3.00;99.90;;;;;;5070760;28;20044;-69
2021/12/06 03:59:13;;;;;;;45.20;24.40;;;2.90;99.90;;;;;;5068147;28;20117;-70
2021/12/06 04:01:39;;;;;;;43.80;23.88;;;3.00;99.90;;;;;;5069264;28;20040;-69
2021/12/06 04:04:07;;;;;;;43.72;23.90;;;3.00;99.90;;;;;;5069526;28;20076;-71
2021/12/06 04:06:36;;;;;;;46.22;23.75;;;3.10;99.90;;;;;;5068884;28;20574;-71
2021/12/06 04:09:04;;;;;;;43.45;24.48;;;3.20;99.90;;;;;;5070250;28;20099;-71
2021/12/06 04:11:29;;;;;;;45.95;24.75;;;3.00;99.90;;;;;;5035500;28;20107;-71
2021/12/06 04:13:55;;;;;;;46.00;24.33;;;3.00;99.90;;;;;;5032309;28;20057;-70
2021/12/06 04:16:21;;;;;;;47.47;25.00;;;3.00;99.90;;;;;;5055307;28;20378;-71
2021/12/06 04:18:46;;;;;;;44.30;24.15;;;3.00;99.90;;;;;;5047508;28;20498;-71
2021/12/06 04:21:12;;;;;;;45.20;24.38;;;3.00;99.90;;;;;;5032372;28;20512;-71
2021/12/06 04:23:38;;;;;;;46.80;24.77;;;3.10;99.90;;;;;;5049979;28;20049;-70
2021/12/06 04:26:04;;;;;;;45.40;24.98;;;3.10;99.90;;;;;;5051031;28;20098;-70
2021/12/06 04:28:33;;;;;;;44.17;23.40;;;3.10;99.90;;;;;;5053005;28;20444;-70
2021/12/06 04:30:58;;;;;;;41.58;23.40;;;3.10;99.90;;;;;;5048068;28;20102;-70
2021/12/06 04:33:24;;;;;;;46.67;24.25;;;3.30;99.90;;;;;;5067831;28;20478;-71
2021/12/06 04:35:50;;;;;;;46.95;25.15;;;3.30;99.90;;;;;;5070202;28;20108;-71
2021/12/06 04:38:16;;;;;;;43.53;23.50;;;3.30;99.90;;;;;;5069288;28;20120;-71
2021/12/06 04:40:42;;;;;;;46.65;24.40;;;3.30;99.90;;;;;;5053131;28;20136;-70
2021/12/06 04:43:09;;;;;;;47.70;24.73;;;3.40;99.90;;;;;;5052201;28;20051;-71
2021/12/06 04:45:35;;;;;;;47.10;24.52;;;3.40;99.90;;;;;;5067060;28;20045;-71
2021/12/06 04:48:01;;;;;;;44.55;24.42;;;3.40;99.90;;;;;;5047598;28;20040;-69
2021/12/06 04:50:31;;;;;;;45.88;24.30;;;3.40;99.90;;;;;;5018182;28;20183;-69
2021/12/06 04:52:59;;;;;;;45.72;24.42;;;3.40;99.90;;;;;;5048485;28;20493;-69
2021/12/06 04:55:43;;;;;;;48.10;24.60;;;3.40;99.90;;;;;;5051911;28;20076;-69
2021/12/06 04:58:16;;;;;;;48.60;24.90;;;3.50;99.90;;;;;;5043536;28;20482;-70
2021/12/06 05:00:48;;;;;;;50.22;25.25;;;3.50;99.90;;;;;;5051720;28;20041;-71
2021/12/06 05:03:15;;;;;;;52.35;26.27;;;3.70;99.90;;;;;;5050298;28;20055;-70
2021/12/06 05:05:49;;;;;;;50.67;26.38;;;3.50;99.90;;;;;;5069561;28;20152;-70
2021/12/06 05:08:25;;;;;;;53.35;26.83;;;3.40;99.90;;;;;;5065088;28;20048;-70
2021/12/06 05:10:52;;;;;;;;;;;3.40;99.90;;;;;;5068847;28;20048;-70
2021/12/06 05:13:18;;;;;;;57.17;25.92;;;3.40;99.90;;;;;;5064488;28;20355;-70
2021/12/06 05:15:45;;;;;;;54.15;25.83;;;3.40;99.90;;;;;;5066383;28;20044;-70
2021/12/06 05:18:11;;;;;;;47.22;24.38;;;4.00;99.90;;;;;;5069608;28;20113;-70
2021/12/06 05:20:36;;;;;;;47.65;24.02;;;3.30;99.90;;;;;;5069472;28;20074;-69
2021/12/06 05:23:04;;;;;;;52.67;24.73;;;3.30;99.90;;;;;;5068694;28;20037;-70
2021/12/06 05:25:30;;;;;;;48.60;24.23;;;3.20;99.90;;;;;;5068496;28;20060;-70
2021/12/06 05:27:59;;;;;;;52.83;25.45;;;3.20;99.90;;;;;;5068762;28;20093;-70
2021/12/06 05:30:25;;;;;;;51.25;25.05;;;3.10;99.90;;;;;;5065898;28;20045;-70
2021/12/06 05:32:52;;;;;;;52.42;24.65;;;3.10;99.90;;;;;;5028958;28;20044;-71
2021/12/06 05:35:19;;;;;;;48.45;25.40;;;3.10;99.90;;;;;;5049014;28;20116;-70
2021/12/06 05:37:53;;;;;;;51.60;26.27;;;3.00;99.90;;;;;;5045670;28;20041;-69
2021/12/06 05:40:30;;;;;;;49.15;25.02;;;4.00;99.90;;;;;;5033905;28;20109;-70
2021/12/06 05:42:56;;;;;;;52.17;25.73;;;3.00;99.90;;;;;;5050659;28;20067;-70
2021/12/06 05:45:25;;;;;;;50.53;24.33;;;3.00;99.90;;;;;;5050676;28;20445;-70
2021/12/06 05:47:52;;;;;;;48.45;24.20;;;3.00;99.90;;;;;;5067464;28;20510;-71
2021/12/06 05:50:18;;;;;;;56.35;26.83;;;3.10;99.90;;;;;;5054982;28;20375;-70
2021/12/06 05:52:45;;;;;;;50.33;25.25;;;3.10;99.90;;;;;;5056312;28;20150;-70
2021/12/06 05:55:11;;;;;;;52.38;25.75;;;3.10;99.90;;;;;;5048813;28;20466;-70
2021/12/06 05:57:38;;;;;;;60.20;27.08;;;3.20;99.90;;;;;;5067107;28;20033;-70
2021/12/06 06:00:08;;;;;;;62.03;27.50;;;3.10;99.90;;;;;;5067442;28;20044;-70
2021/12/06 06:02:34;;;;;;;56.50;26.02;;;3.20;99.90;;;;;;5066668;28;20041;-71
2021/12/06 06:05:00;;;;;;;59.47;27.15;;;3.20;99.90;;;;;;5067710;28;20643;-71
2021/12/06 06:07:26;;;;;;;56.75;26.95;;;4.10;99.90;;;;;;5067704;28;20131;-71
2021/12/06 06:09:51;;;;;;;56.15;26.85;;;3.10;99.90;;;;;;5049033;28;20123;-71
2021/12/06 06:12:17;;;;;;;53.35;24.75;;;3.50;99.90;;;;;;5034862;28;20059;-70
2021/12/06 06:14:42;;;;;;;53.63;24.83;;;3.10;99.90;;;;;;5067687;28;20036;-70
2021/12/06 06:17:12;;;;;;;51.42;24.75;;;3.10;99.90;;;;;;5066811;28;20036;-70
2021/12/06 06:19:41;;;;;;;51.05;25.17;;;3.20;99.90;;;;;;5066775;28;20055;-71
2021/12/06 06:22:07;;;;;;;50.40;24.52;;;3.10;99.90;;;;;;5047959;28;20122;-71
2021/12/06 06:24:33;;;;;;;55.40;26.65;;;3.10;99.90;;;;;;5029694;28;20481;-72
2021/12/06 06:26:58;;;;;;;51.35;24.73;;;3.10;99.90;;;;;;5055130;28;20048;-72
2021/12/06 06:29:24;;;;;;;54.90;26.50;;;3.10;99.90;;;;;;5067263;28;20090;-72
2021/12/06 06:31:50;;;;;;;49.10;24.05;;;3.50;99.90;;;;;;5066433;28;20052;-72
2021/12/06 06:34:16;;;;;;;49.05;24.63;;;3.00;99.90;;;;;;5066461;28;20128;-71
2021/12/06 06:36:42;;;;;;;49.20;24.08;;;3.00;99.90;;;;;;5067647;28;20148;-71
2021/12/06 06:39:09;;;;;;;49.35;24.08;;;3.00;99.90;;;;;;5065379;28;20037;-71
2021/12/06 06:41:35;;;;;;;49.65;24.08;;;3.00;99.90;;;;;;5047781;28;20061;-70
2021/12/06 06:44:01;;;;;;;49.20;25.20;;;3.00;99.90;;;;;;5065912;28;20051;-71
2021/12/06 06:46:27;;;;;;;50.50;24.55;;;2.90;99.90;;;;;;5066101;28;20136;-71
2021/12/06 06:48:53;;;;;;;47.88;22.77;;;2.90;99.90;;;;;;5066996;28;20123;-70
2021/12/06 06:51:19;;;;;;;49.75;24.25;;;2.90;99.90;;;;;;5048786;28;20052;-71
2021/12/06 06:53:44;;;;;;;49.33;23.38;;;2.90;99.90;;;;;;5066928;28;20068;-71
2021/12/06 06:56:10;;;;;;;50.00;23.92;;;2.90;99.90;;;;;;5067084;28;20045;-71
2021/12/06 06:58:36;;;;;;;53.42;24.70;;;2.90;99.90;;;;;;5046270;28;20128;-71
2021/12/06 07:01:02;;;;;;;51.20;23.13;;;3.60;99.90;;;;;;5052056;28;20045;-71
2021/12/06 07:03:31;;;;;;;59.63;25.23;;;2.80;99.90;;;;;;5066272;28;20138;-71
2021/12/06 07:06:02;;;;;;;54.35;24.60;;;2.80;99.90;;;;;;5046621;28;20063;-71
2021/12/06 07:08:28;;;;;;;58.50;25.05;;;2.80;99.90;;;;;;5052181;28;20044;-71
2021/12/06 07:10:56;;;;;;;57.58;25.73;;;2.70;99.90;;;;;;5048325;28;20419;-70
2021/12/06 07:13:23;;;;;;;61.75;26.42;;;2.70;99.90;;;;;;5063137;28;20044;-71
2021/12/06 07:15:49;;;;;;;62.60;25.73;;;2.90;99.90;;;;;;5069470;28;20155;-71
2021/12/06 07:18:16;;;;;;;58.22;25.83;;;2.50;99.90;;;;;;5058561;28;20044;-71
2021/12/06 07:20:42;;;;;;;66.50;28.55;;;2.40;99.90;;;;;;5060706;28;20055;-71
2021/12/06 07:23:07;;;;;;;62.25;27.77;;;2.50;99.90;;;;;;5050596;28;20394;-71
2021/12/06 07:25:34;;;;;;;65.18;29.15;;;2.40;99.90;;;;;;5069623;28;20049;-71
2021/12/06 07:28:03;;;;;;;63.00;27.75;;;2.30;99.90;;;;;;5064746;28;20037;-70
2021/12/06 07:30:29;;;;;;;65.45;28.48;;;2.40;99.90;;;;;;5050483;28;20484;-71
2021/12/06 07:32:54;;;;;;;64.55;26.83;;;2.40;99.90;;;;;;5062285;28;20077;-70
2021/12/06 07:35:22;;;;;;;66.93;26.10;;;2.40;99.90;;;;;;5049650;28;20049;-71
2021/12/06 07:37:49;;;;;;;59.92;26.42;;;2.40;99.90;;;;;;5050207;28;20041;-71
2021/12/06 07:40:16;;;;;;;59.55;25.92;;;2.40;99.90;;;;;;5031876;28;20400;-71
2021/12/06 07:42:42;;;;;;;54.50;24.92;;;2.40;99.90;;;;;;5032482;28;20045;-71
2021/12/06 07:45:10;;;;;;;56.92;25.77;;;2.40;99.90;;;;;;5015783;28;20051;-71
2021/12/06 07:47:37;;;;;;;58.15;25.15;;;2.40;99.90;;;;;;5048815;28;20120;-71
2021/12/06 07:50:10;;;;;;;58.00;24.83;;;2.50;99.90;;;;;;5031763;28;20626;-71
2021/12/06 07:52:36;;;;;;;63.55;26.70;;;2.50;99.90;;;;;;5031813;28;20105;-73
2021/12/06 07:55:05;;;;;;;59.53;26.13;;;2.50;99.90;;;;;;5050390;28;20049;-71
2021/12/06 07:57:31;;;;;;;64.40;26.27;;;2.50;99.90;;;;;;5049169;28;20420;-72
2021/12/06 07:59:57;;;;;;;57.67;25.20;;;2.50;99.90;;;;;;5061374;28;20037;-71
2021/12/06 08:02:23;;;;;;;61.78;25.98;;;2.50;99.90;;;;;;5068845;28;20048;-72
2021/12/06 08:04:59;;;;;;;62.45;25.88;;;2.60;99.90;;;;;;5067435;28;20407;-71
2021/12/06 08:07:25;;;;;;;58.75;25.58;;;2.60;99.90;;;;;;5069817;28;20245;-71
2021/12/06 08:09:53;;;;;;;60.05;24.92;;;2.60;99.90;;;;;;5069927;28;20036;-72
2021/12/06 08:12:18;;;;;;;58.75;25.83;;;2.70;99.90;;;;;;5059660;28;20117;-71
2021/12/06 08:14:44;;;;;;;57.03;25.45;;;2.60;99.90;;;;;;5050904;28;20120;-73
2021/12/06 08:17:10;;;;;;;63.22;26.33;;;2.60;99.90;;;;;;5048348;28;20559;-73
2021/12/06 08:19:35;;;;;;;64.47;26.08;;;2.60;99.90;;;;;;5037450;28;20040;-71
2021/12/06 08:22:01;;;;;;;62.00;27.80;;;2.70;99.90;;;;;;5049325;28;20137;-72
2021/12/06 08:24:27;;;;;;;61.75;24.20;;;2.60;99.90;;;;;;5059933;28;20056;-71
2021/12/06 08:26:52;;;;;;;62.72;25.58;;;2.70;99.90;;;;;;5069391;28;20504;-71
2021/12/06 08:29:18;;;;;;;70.70;26.95;;;3.90;99.90;;;;;;5054690;28;20127;-72
2021/12/06 08:31:44;;;;;;;66.03;27.60;;;2.60;99.90;;;;;;5061568;28;20146;-72
2021/12/06 08:34:11;;;;;;;65.22;26.17;;;2.60;99.90;;;;;;5033985;28;20489;-71
2021/12/06 08:36:37;;;;;;;69.20;26.52;;;2.50;99.90;;;;;;5069095;28;20118;-71
2021/12/06 08:39:05;;;;;;;69.80;27.48;;;2.60;99.90;;;;;;5049173;28;20465;-72
2021/12/06 08:41:31;;;;;;;59.42;25.67;;;2.60;99.90;;;;;;5068682;28;20041;-71
2021/12/06 08:43:57;;;;;;;65.88;26.23;;;2.60;99.90;;;;;;5035229;28;20384;-71
2021/12/06 08:46:27;;;;;;;65.30;26.45;;;2.60;99.90;;;;;;5067362;28;20044;-73
2021/12/06 08:48:54;;;;;;;66.30;27.13;;;2.60;99.90;;;;;;5053158;28;20097;-73
2021/12/06 08:51:33;;;;;;;63.72;25.88;;;2.70;99.90;;;;;;5068231;28;20036;-71
2021/12/06 08:54:00;;;;;;;62.38;26.90;;;2.60;99.90;;;;;;5067251;28;20068;-71
2021/12/06 08:56:27;;;;;;;60.63;25.42;;;2.60;99.90;;;;;;5068426;28;20055;-72
2021/12/06 08:58:53;;;;;;;63.35;24.90;;;2.80;99.90;;;;;;5068197;28;20151;-71
2021/12/06 09:01:20;;;;;;;67.43;26.90;;;2.70;99.90;;;;;;5065912;28;20048;-72
2021/12/06 09:03:46;;;;;;;61.58;25.52;;;2.80;99.90;;;;;;5065924;28;20056;-72
2021/12/06 09:06:12;;;;;;;62.42;25.27;;;2.80;99.90;;;;;;5068347;28;20045;-71
2021/12/06 09:08:41;;;;;;;63.55;27.02;;;2.90;99.90;;;;;;5068334;28;20046;-72
2021/12/06 09:11:07;;;;;;;55.70;25.63;;;2.90;99.90;;;;;;5069084;28;20044;-72
2021/12/06 09:13:34;;;;;;;60.28;24.92;;;3.00;99.90;;;;;;5048089;28;20466;-72
2021/12/06 09:16:02;;;;;;;57.33;23.95;;;3.00;99.90;;;;;;5058469;28;20471;-71
2021/12/06 09:18:34;;;;;;;55.25;24.38;;;3.10;99.90;;;;;;5048607;28;20064;-71
2021/12/06 09:21:01;;;;;;;53.17;23.65;;;3.20;99.90;;;;;;5066925;28;20051;-71
2021/12/06 09:23:27;;;;;;;56.40;24.85;;;3.20;99.90;;;;;;5066017;28;20048;-71
2021/12/06 09:25:53;;;;;;;48.10;22.40;;;3.10;99.90;;;;;;5068706;28;20037;-71
2021/12/06 09:28:19;;;;;;;54.80;23.45;;;3.10;99.90;;;;;;5066997;28;20056;-71
2021/12/06 09:30:46;;;;;;;46.42;22.40;;;3.20;99.90;;;;;;5067348;28;20477;-71
2021/12/06 09:33:14;;;;;;;43.28;20.25;;;3.40;99.90;;;;;;5045489;28;20045;-71
2021/12/06 09:35:43;;;;;;;40.40;19.52;;;3.50;99.90;;;;;;5029480;28;20452;-69
2021/12/06 09:38:11;;;;;;;45.75;21.35;;;3.60;99.90;;;;;;5046597;28;20037;-70
2021/12/06 09:40:40;;;;;;;43.97;21.40;;;3.60;99.90;;;;;;5058059;28;20074;-70
2021/12/06 09:43:08;;;;;;;39.67;19.80;;;3.70;99.90;;;;;;5052603;28;20036;-70
2021/12/06 09:45:34;;;;;;;41.47;20.75;;;4.10;99.90;;;;;;5065960;28;20040;-70
2021/12/06 09:48:02;;;;;;;41.25;19.73;;;3.70;99.90;;;;;;5066960;28;20123;-70
2021/12/06 09:50:37;;;;;;;41.92;19.88;;;3.50;99.90;;;;;;5048089;28;20381;-70
2021/12/06 09:53:09;;;;;;;39.53;19.90;;;3.60;99.90;;;;;;5044261;28;20084;-72
2021/12/06 09:55:36;;;;;;;41.75;19.88;;;3.60;99.90;;;;;;5049809;28;20053;-71
2021/12/06 09:58:05;;;;;;;42.47;20.42;;;3.60;99.90;;;;;;5053034;28;20062;-71
2021/12/06 10:00:36;;;;;;;45.55;21.48;;;3.70;99.90;;;;;;5062952;28;20104;-70
2021/12/06 10:03:03;;;;;;;41.30;20.25;;;3.60;99.90;;;;;;5043749;28;20081;-71
2021/12/06 10:05:31;;;;;;;42.10;20.73;;;3.60;99.90;;;;;;5065076;28;20047;-71
2021/12/06 10:07:59;;;;;;;43.97;20.52;;;3.60;99.90;;;;;;5067392;28;20044;-71
2021/12/06 10:10:27;;;;;;;40.30;18.52;;;3.70;99.90;;;;;;5066635;28;20437;-70
2021/12/06 10:12:54;;;;;;;36.00;18.05;;;3.60;99.90;;;;;;5049506;28;20121;-71
2021/12/06 10:15:25;;;;;;;39.13;17.67;;;3.60;99.90;;;;;;5066253;28;20056;-71
2021/12/06 10:17:52;;;;;;;38.63;18.50;;;3.60;99.90;;;;;;5065467;28;20460;-71
2021/12/06 10:20:17;;;;;;;38.60;19.25;;;3.50;99.90;;;;;;5066916;28;20037;-71
2021/12/06 10:22:43;;;;;;;38.95;17.85;;;3.60;99.90;;;;;;5067660;28;20055;-71
2021/12/06 10:25:09;;;;;;;38.33;19.88;;;3.60;99.90;;;;;;5066535;28;20040;-71
2021/12/06 10:27:35;;;;;;;38.08;18.48;;;3.50;99.90;;;;;;5066543;28;20150;-71
2021/12/06 10:30:08;;;;;;;33.17;16.60;;;3.60;99.90;;;;;;5063827;28;20127;-71
2021/12/06 10:32:36;;;;;;;37.17;17.60;;;3.70;99.90;;;;;;5058288;28;20117;-71
2021/12/06 10:35:08;;;;;;;34.40;17.33;;;3.70;99.90;;;;;;5029618;28;20045;-71
2021/12/06 10:37:46;;;;;;;37.58;17.65;;;3.70;99.90;;;;;;5047562;28;20048;-71
2021/12/06 10:40:27;;;;;;;36.30;17.83;;;3.70;99.90;;;;;;5028885;28;20414;-71
2021/12/06 10:42:54;;;;;;;36.38;17.33;;;3.70;99.90;;;;;;5049788;28;20055;-71
2021/12/06 10:45:28;;;;;;;38.25;18.75;;;3.20;99.90;;;;;;5047799;28;20044;-71
2021/12/06 10:48:03;;;;;;;36.38;17.52;;;3.20;99.90;;;;;;5051527;28;20053;-71
2021/12/06 10:50:29;;;;;;;37.33;18.15;;;3.40;99.90;;;;;;5051264;28;20049;-71
2021/12/06 10:52:57;;;;;;;37.33;18.27;;;3.30;99.90;;;;;;5032689;28;20585;-71
2021/12/06 10:55:28;;;;;;;36.05;18.92;;;3.40;99.90;;;;;;5032975;28;20532;-71
2021/12/06 10:57:56;;;;;;;39.28;17.85;;;3.40;99.90;;;;;;5052189;28;20115;-71
2021/12/06 11:00:32;;;;;;;37.97;19.17;;;3.30;99.90;;;;;;5050833;28;20058;-72
2021/12/06 11:02:58;;;;;;;;;;;4.40;99.90;;;;;;5032612;28;20087;-71
2021/12/06 11:05:26;;;;;;;35.78;18.52;;;3.50;99.90;;;;;;5050430;28;19932;-71
2021/12/06 11:08:10;;;;;;;34.20;17.20;;;3.30;99.90;;;;;;5032173;28;20057;-71
2021/12/06 11:10:44;;;;;;;33.03;16.75;;;3.20;99.90;;;;;;5050652;28;20067;-72
2021/12/06 11:13:16;;;;;;;32.42;15.98;;;3.20;99.90;;;;;;5050504;28;20179;-71
2021/12/06 11:15:59;;;;;;;34.03;16.63;;;3.30;99.90;;;;;;5015594;28;20397;-71
2021/12/06 11:18:33;;;;;;;33.53;18.02;;;3.30;99.90;;;;;;5050159;28;20045;-71
2021/12/06 11:21:00;;;;;;;33.50;16.98;;;3.20;99.90;;;;;;5050289;28;20139;-71
2021/12/06 11:23:26;;;;;;;35.17;18.02;;;3.30;99.90;;;;;;5032260;28;20132;-71
2021/12/06 11:26:01;;;;;;;39.10;18.92;;;3.40;99.90;;;;;;5050504;28;20456;-71
2021/12/06 11:28:29;;;;;;;;;;;3.40;99.90;;;;;;5032435;28;20061;-71
2021/12/06 11:31:06;;;;;;;34.50;17.75;;;3.40;99.90;;;;;;5032787;28;20447;-72
2021/12/06 11:33:34;;;;;;;37.03;19.10;;;3.50;99.90;;;;;;5063873;28;20095;-72
2021/12/06 11:36:16;;;;;;;41.70;19.90;;;3.50;99.90;;;;;;5051399;28;20500;-71
2021/12/06 11:38:46;;;;;;;45.15;21.75;;;3.50;99.90;;;;;;5072001;28;20462;-72
2021/12/06 11:41:12;;;;;;;38.55;19.42;;;3.30;99.90;;;;;;5070669;28;20041;-71
2021/12/06 11:43:39;;;;;;;39.70;20.52;;;3.40;99.90;;;;;;5067668;28;20054;-71
2021/12/06 11:46:07;;;;;;;40.28;20.83;;;3.50;99.90;;;;;;5066192;28;20051;-70
2021/12/06 11:48:36;;;;;;;37.65;20.27;;;3.60;99.90;;;;;;5067311;28;20397;-71
2021/12/06 11:51:16;;;;;;;35.67;19.42;;;3.50;99.90;;;;;;5068100;28;20156;-70
2021/12/06 11:54:09;;;;;;;38.70;21.30;;;3.50;99.90;;;;;;5085767;28;20105;-70
2021/12/06 11:56:42;;;;;;;38.05;20.00;;;3.60;99.90;;;;;;5080832;28;20373;-70
2021/12/06 11:59:08;;;;;;;41.53;21.52;;;3.70;99.90;;;;;;5069804;28;20047;-70
2021/12/06 12:01:40;;;;;;;39.72;19.55;;;3.80;99.90;;;;;;5074671;28;20093;-72
2021/12/06 12:04:14;;;;;;;39.47;19.73;;;3.80;99.90;;;;;;5085478;28;20401;-71
2021/12/06 12:06:42;;;;;;;43.58;20.20;;;3.90;99.90;;;;;;5086559;28;20054;-70
2021/12/06 12:09:21;;;;;;;39.30;19.08;;;4.00;99.90;;;;;;5045309;28;20048;-70
2021/12/06 12:12:10;;;;;;;33.72;19.40;;;3.80;99.90;;;;;;5067588;28;20382;-71
2021/12/06 12:14:45;;;;;;;33.05;18.85;;;3.80;99.90;;;;;;5074587;28;20361;-71
2021/12/06 12:17:30;;;;;;;33.33;18.75;;;3.90;99.90;;;;;;5087759;28;20096;-72
2021/12/06 12:19:57;;;;;;;33.45;16.95;;;4.20;99.90;;;;;;5052426;28;20053;-71
2021/12/06 12:22:26;;;;;;;32.50;16.90;;;5.50;99.90;;;;;;5058882;28;20054;-71
2021/12/06 12:24:57;;;;;;;31.25;17.35;;;4.30;99.90;;;;;;5089309;28;20071;-70
2021/12/06 12:29:51;;;;;;;31.48;16.58;;;4.20;99.90;;;;;;5073943;28;20079;-70
2021/12/06 12:32:17;;;;;;;28.42;16.20;;;4.30;99.90;;;;;;5065084;28;20453;-71
2021/12/06 12:34:46;;;;;;;27.27;15.82;;;4.20;99.90;;;;;;5047344;28;20086;-71
2021/12/06 12:37:14;;;;;;;27.27;14.55;;;3.90;99.90;;;;;;5050965;28;20079;-70
2021/12/06 12:39:41;;;;;;;25.27;14.85;;;3.90;99.90;;;;;;5050207;28;20052;-70
2021/12/06 12:42:09;;;;;;;27.45;14.80;;;4.40;99.90;;;;;;5051229;28;20048;-70
2021/12/06 12:44:48;;;;;;;31.13;16.40;;;3.80;99.90;;;;;;5050360;28;20083;-71
2021/12/06 12:47:42;;;;;;;32.35;16.70;;;3.90;99.90;;;;;;5064642;28;20052;-72
2021/12/06 12:50:11;;;;;;;29.95;15.65;;;3.90;99.90;;;;;;5024300;28;20132;-70
2021/12/06 12:52:45;;;;;;;29.70;17.02;;;3.90;99.90;;;;;;5082264;28;20056;-70
2021/12/06 12:55:34;;;;;;;32.30;16.35;;;3.90;99.90;;;;;;5043690;28;20049;-73
2021/12/06 12:58:23;;;;;;;33.40;17.00;;;3.90;99.90;;;;;;5030935;28;20055;-70